sensor_id;sensor_type;location;lat;lon;timestamp;temperature;humidity
2861;DHT22;1438;50.922;6.704;2022-09-09T06:25:20;16.60;99.90
2861;DHT22;1438;50.922;6.704;2022-09-09T06:27:48;16.70;99.90
2861;DHT22;1438;50.922;6.704;2022-09-09T06:30:15;16.70;99.90
2861;DHT22;1438;50.922;6.704;2022-09-09T06:32:42;16.80;99.90
2861;DHT22;1438;50.922;6.704;2022-09-09T06:35:08;16.80;99.90
2861;DHT22;1438;50.922;6.704;2022-09-09T06:37:33;17.00;99.90
2861;DHT22;1438;50.922;6.704;2022-09-09T06:39:59;17.00;99.90
2861;DHT22;1438;50.922;6.704;2022-09-09T06:42:24;17.00;99.90
2861;DHT22;1438;50.922;6.704;2022-09-09T06:44:50;17.10;99.90
2861;DHT22;1438;50.922;6.704;2022-09-09T06:47:16;17.30;99.90
2861;DHT22;1438;50.922;6.704;2022-09-09T06:49:41;17.30;99.90
2861;DHT22;1438;50.922;6.704;2022-09-09T06:52:12;17.30;99.90
2861;DHT22;1438;50.922;6.704;2022-09-09T06:54:38;17.30;99.90
2861;DHT22;1438;50.922;6.704;2022-09-09T06:57:03;17.40;99.90
2861;DHT22;1438;50.922;6.704;2022-09-09T06:59:32;17.50;99.90
2861;DHT22;1438;50.922;6.704;2022-09-09T07:01:57;17.40;99.90
2861;DHT22;1438;50.922;6.704;2022-09-09T07:04:23;17.50;99.90
2861;DHT22;1438;50.922;6.704;2022-09-09T07:06:50;17.50;99.90
2861;DHT22;1438;50.922;6.704;2022-09-09T07:09:17;17.60;99.90
2861;DHT22;1438;50.922;6.704;2022-09-09T07:11:48;17.80;99.90
2861;DHT22;1438;50.922;6.704;2022-09-09T07:14:15;17.70;99.90
2861;DHT22;1438;50.922;6.704;2022-09-09T07:16:45;17.70;99.90
2861;DHT22;1438;50.922;6.704;2022-09-09T07:19:11;17.70;99.90
2861;DHT22;1438;50.922;6.704;2022-09-09T07:21:38;17.80;99.90
2861;DHT22;1438;50.922;6.704;2022-09-09T07:24:05;17.80;99.90
2861;DHT22;1438;50.922;6.704;2022-09-09T07:26:33;17.90;99.90
2861;DHT22;1438;50.922;6.704;2022-09-09T07:28:59;18.00;99.90
2861;DHT22;1438;50.922;6.704;2022-09-09T07:31:33;18.20;99.90
2861;DHT22;1438;50.922;6.704;2022-09-09T07:34:00;18.30;99.90
2861;DHT22;1438;50.922;6.704;2022-09-09T07:36:31;18.30;99.90
2861;DHT22;1438;50.922;6.704;2022-09-09T07:39:04;18.40;99.90
2861;DHT22;1438;50.922;6.704;2022-09-09T07:41:36;18.50;99.90
2861;DHT22;1438;50.922;6.704;2022-09-09T07:44:13;18.50;99.90
2861;DHT22;1438;50.922;6.704;2022-09-09T07:46:39;18.60;99.90
2861;DHT22;1438;50.922;6.704;2022-09-09T07:49:06;18.70;99.90
2861;DHT22;1438;50.922;6.704;2022-09-09T07:51:35;18.70;99.90
2861;DHT22;1438;50.922;6.704;2022-09-09T07:54:07;18.80;99.90
2861;DHT22;1438;50.922;6.704;2022-09-09T07:56:35;18.70;99.90
2861;DHT22;1438;50.922;6.704;2022-09-09T07:59:01;18.80;99.90
2861;DHT22;1438;50.922;6.704;2022-09-09T08:01:35;18.80;99.90
2861;DHT22;1438;50.922;6.704;2022-09-09T08:04:06;18.80;99.90
2861;DHT22;1438;50.922;6.704;2022-09-09T08:06:35;18.90;99.90
2861;DHT22;1438;50.922;6.704;2022-09-09T08:09:02;19.00;99.90
2861;DHT22;1438;50.922;6.704;2022-09-09T08:11:29;19.00;99.90
2861;DHT22;1438;50.922;6.704;2022-09-09T08:13:55;19.20;99.90
2861;DHT22;1438;50.922;6.704;2022-09-09T08:16:29;19.10;99.90
2861;DHT22;1438;50.922;6.704;2022-09-09T08:18:55;19.20;99.90
2861;DHT22;1438;50.922;6.704;2022-09-09T08:21:27;19.30;99.90
2861;DHT22;1438;50.922;6.704;2022-09-09T08:23:54;19.50;99.90
2861;DHT22;1438;50.922;6.704;2022-09-09T08:26:28;19.50;99.90
2861;DHT22;1438;50.922;6.704;2022-09-09T08:28:56;19.70;99.90
2861;DHT22;1438;50.922;6.704;2022-09-09T08:31:28;19.80;99.90
2861;DHT22;1438;50.922;6.704;2022-09-09T08:33:55;19.70;99.90
2861;DHT22;1438;50.922;6.704;2022-09-09T08:36:24;19.60;99.90
2861;DHT22;1438;50.922;6.704;2022-09-09T08:38:52;19.70;99.90
2861;DHT22;1438;50.922;6.704;2022-09-09T08:47:22;19.60;99.90
2861;DHT22;1438;50.922;6.704;2022-09-09T08:50:21;19.60;99.90
2861;DHT22;1438;50.922;6.704;2022-09-09T08:55:56;20.00;99.90
2861;DHT22;1438;50.922;6.704;2022-09-09T08:58:32;20.00;99.90
2861;DHT22;1438;50.922;6.704;2022-09-09T09:09:21;20.30;99.90
2861;DHT22;1438;50.922;6.704;2022-09-09T09:11:59;20.30;99.90
2861;DHT22;1438;50.922;6.704;2022-09-09T09:14:29;20.20;99.90
2861;DHT22;1438;50.922;6.704;2022-09-09T09:17:14;20.10;99.90
2861;DHT22;1438;50.922;6.704;2022-09-09T09:19:41;20.00;99.90
2861;DHT22;1438;50.922;6.704;2022-09-09T09:27:33;19.90;99.90
2861;DHT22;1438;50.922;6.704;2022-09-09T09:30:23;19.90;99.90
2861;DHT22;1438;50.922;6.704;2022-09-09T09:32:54;20.00;99.90
2861;DHT22;1438;50.922;6.704;2022-09-09T09:35:21;20.10;99.90
2861;DHT22;1438;50.922;6.704;2022-09-09T09:37:47;20.30;99.90
2861;DHT22;1438;50.922;6.704;2022-09-09T09:40:19;20.40;99.90
2861;DHT22;1438;50.922;6.704;2022-09-09T09:42:59;20.50;99.90
2861;DHT22;1438;50.922;6.704;2022-09-09T09:45:43;20.50;99.90
2861;DHT22;1438;50.922;6.704;2022-09-09T09:48:13;20.40;99.90
2861;DHT22;1438;50.922;6.704;2022-09-09T09:56:07;20.90;99.90
2861;DHT22;1438;50.922;6.704;2022-09-09T09:58:50;21.00;99.90
2861;DHT22;1438;50.922;6.704;2022-09-09T10:01:22;21.60;99.90
2861;DHT22;1438;50.922;6.704;2022-09-09T10:03:57;21.80;99.90
2861;DHT22;1438;50.922;6.704;2022-09-09T10:06:33;21.30;99.90
2861;DHT22;1438;50.922;6.704;2022-09-09T10:08:59;21.10;99.90
2861;DHT22;1438;50.922;6.704;2022-09-09T10:11:47;21.10;99.90
2861;DHT22;1438;50.922;6.704;2022-09-09T10:14:23;21.10;99.90
2861;DHT22;1438;50.922;6.704;2022-09-09T10:22:38;20.80;99.90
2861;DHT22;1438;50.922;6.704;2022-09-09T10:25:03;20.90;99.90
2861;DHT22;1438;50.922;6.704;2022-09-09T10:35:24;21.30;99.90
2861;DHT22;1438;50.922;6.704;2022-09-09T10:51:49;21.60;99.90
2861;DHT22;1438;50.922;6.704;2022-09-09T10:57:11;21.10;99.90
2861;DHT22;1438;50.922;6.704;2022-09-09T10:59:43;21.10;99.90
2861;DHT22;1438;50.922;6.704;2022-09-09T11:02:18;21.00;99.90
2861;DHT22;1438;50.922;6.704;2022-09-09T11:04:57;21.00;99.90
2861;DHT22;1438;50.922;6.704;2022-09-09T11:10:40;21.10;99.90
2861;DHT22;1438;50.922;6.704;2022-09-09T11:13:20;21.20;99.90
2861;DHT22;1438;50.922;6.704;2022-09-09T11:15:50;21.40;99.90
2861;DHT22;1438;50.922;6.704;2022-09-09T11:18:20;21.50;99.90
2861;DHT22;1438;50.922;6.704;2022-09-09T11:20:50;21.50;99.90
2861;DHT22;1438;50.922;6.704;2022-09-09T11:23:36;21.60;99.90
2861;DHT22;1438;50.922;6.704;2022-09-09T11:26:05;21.60;99.90
2861;DHT22;1438;50.922;6.704;2022-09-09T11:28:46;21.70;99.90
2861;DHT22;1438;50.922;6.704;2022-09-09T11:31:51;21.70;99.90
2861;DHT22;1438;50.922;6.704;2022-09-09T11:34:47;21.70;99.90
2861;DHT22;1438;50.922;6.704;2022-09-09T11:40:15;21.50;99.90
2861;DHT22;1438;50.922;6.704;2022-09-09T11:42:42;21.50;99.90
2861;DHT22;1438;50.922;6.704;2022-09-09T11:45:10;21.30;99.90
2861;DHT22;1438;50.922;6.704;2022-09-09T11:47:36;21.20;99.90
2861;DHT22;1438;50.922;6.704;2022-09-09T11:52:44;21.10;99.90
2861;DHT22;1438;50.922;6.704;2022-09-09T11:55:28;21.00;99.90
2861;DHT22;1438;50.922;6.704;2022-09-09T11:58:06;20.90;99.90
2861;DHT22;1438;50.922;6.704;2022-09-09T12:00:45;20.90;99.90
2861;DHT22;1438;50.922;6.704;2022-09-09T12:05:59;20.80;99.90
2861;DHT22;1438;50.922;6.704;2022-09-09T12:08:28;21.00;99.90
2861;DHT22;1438;50.922;6.704;2022-09-09T12:10:58;21.00;99.90
2861;DHT22;1438;50.922;6.704;2022-09-09T12:13:26;21.00;99.90
2861;DHT22;1438;50.922;6.704;2022-09-09T12:15:57;21.10;99.90
2861;DHT22;1438;50.922;6.704;2022-09-09T12:18:35;21.10;99.90
2861;DHT22;1438;50.922;6.704;2022-09-09T12:24:27;21.20;99.90
2861;DHT22;1438;50.922;6.704;2022-09-09T12:32:11;20.30;99.90
2861;DHT22;1438;50.922;6.704;2022-09-09T12:34:44;19.40;99.90
2861;DHT22;1438;50.922;6.704;2022-09-09T12:37:34;18.40;99.90
2861;DHT22;1438;50.922;6.704;2022-09-09T12:40:05;18.10;99.90
2861;DHT22;1438;50.922;6.704;2022-09-09T12:42:32;18.30;99.90
2861;DHT22;1438;50.922;6.704;2022-09-09T12:45:14;18.90;99.90
2861;DHT22;1438;50.922;6.704;2022-09-09T12:50:21;20.30;99.90
2861;DHT22;1438;50.922;6.704;2022-09-09T12:52:50;20.90;99.90
2861;DHT22;1438;50.922;6.704;2022-09-09T12:55:19;21.50;99.90
2861;DHT22;1438;50.922;6.704;2022-09-09T12:57:48;21.80;99.90
2861;DHT22;1438;50.922;6.704;2022-09-09T13:00:18;22.00;99.90
2861;DHT22;1438;50.922;6.704;2022-09-09T13:02:54;21.70;99.90
2861;DHT22;1438;50.922;6.704;2022-09-09T13:05:27;21.30;99.90
2861;DHT22;1438;50.922;6.704;2022-09-09T13:08:01;21.00;99.90
2861;DHT22;1438;50.922;6.704;2022-09-09T13:10:29;20.80;99.90
2861;DHT22;1438;50.922;6.704;2022-09-09T13:12:56;20.80;99.90
2861;DHT22;1438;50.922;6.704;2022-09-09T13:15:24;20.90;99.90
2861;DHT22;1438;50.922;6.704;2022-09-09T13:17:57;21.00;99.90
2861;DHT22;1438;50.922;6.704;2022-09-09T13:20:26;21.10;99.90
2861;DHT22;1438;50.922;6.704;2022-09-09T13:22:54;21.30;99.90
2861;DHT22;1438;50.922;6.704;2022-09-09T13:25:29;21.20;99.90
2861;DHT22;1438;50.922;6.704;2022-09-09T13:28:04;21.10;99.90
2861;DHT22;1438;50.922;6.704;2022-09-09T13:30:33;21.00;99.90
2861;DHT22;1438;50.922;6.704;2022-09-09T13:35:28;21.00;99.90
2861;DHT22;1438;50.922;6.704;2022-09-09T13:37:55;21.00;99.90
2861;DHT22;1438;50.922;6.704;2022-09-09T13:40:22;20.90;99.90
2861;DHT22;1438;50.922;6.704;2022-09-09T13:42:51;20.90;99.90
2861;DHT22;1438;50.922;6.704;2022-09-09T13:45:20;21.00;99.90
2861;DHT22;1438;50.922;6.704;2022-09-09T13:47:46;20.90;99.90
2861;DHT22;1438;50.922;6.704;2022-09-09T13:50:27;20.70;99.90
2861;DHT22;1438;50.922;6.704;2022-09-09T13:52:55;20.30;99.90
2861;DHT22;1438;50.922;6.704;2022-09-09T13:55:28;20.20;99.90
2861;DHT22;1438;50.922;6.704;2022-09-09T13:58:02;20.20;99.90
2861;DHT22;1438;50.922;6.704;2022-09-09T14:00:33;20.10;99.90
2861;DHT22;1438;50.922;6.704;2022-09-09T14:02:59;20.10;99.90
2861;DHT22;1438;50.922;6.704;2022-09-09T14:05:30;20.10;99.90
2861;DHT22;1438;50.922;6.704;2022-09-09T14:07:57;19.70;99.90
2861;DHT22;1438;50.922;6.704;2022-09-09T14:10:23;19.30;99.90
2861;DHT22;1438;50.922;6.704;2022-09-09T14:12:49;19.10;99.90
2861;DHT22;1438;50.922;6.704;2022-09-09T14:15:14;18.90;99.90
2861;DHT22;1438;50.922;6.704;2022-09-09T14:17:40;18.70;99.90
2861;DHT22;1438;50.922;6.704;2022-09-09T14:20:07;18.60;99.90
2861;DHT22;1438;50.922;6.704;2022-09-09T14:22:35;18.50;99.90
2861;DHT22;1438;50.922;6.704;2022-09-09T14:25:01;18.40;99.90
2861;DHT22;1438;50.922;6.704;2022-09-09T14:27:26;18.30;99.90
2861;DHT22;1438;50.922;6.704;2022-09-09T14:29:52;18.10;99.90
2861;DHT22;1438;50.922;6.704;2022-09-09T14:32:18;18.10;99.90
2861;DHT22;1438;50.922;6.704;2022-09-09T14:34:44;18.20;99.90
2861;DHT22;1438;50.922;6.704;2022-09-09T14:37:10;18.40;99.90
2861;DHT22;1438;50.922;6.704;2022-09-09T14:39:36;18.50;99.90
2861;DHT22;1438;50.922;6.704;2022-09-09T14:42:01;18.50;99.90
2861;DHT22;1438;50.922;6.704;2022-09-09T14:44:28;18.50;99.90
2861;DHT22;1438;50.922;6.704;2022-09-09T14:46:53;18.60;99.90
2861;DHT22;1438;50.922;6.704;2022-09-09T14:49:19;18.60;99.90
2861;DHT22;1438;50.922;6.704;2022-09-09T14:51:45;18.70;99.90
2861;DHT22;1438;50.922;6.704;2022-09-09T14:54:11;18.80;99.90
2861;DHT22;1438;50.922;6.704;2022-09-09T14:56:37;19.00;99.90
2861;DHT22;1438;50.922;6.704;2022-09-09T14:59:03;19.20;99.90
2861;DHT22;1438;50.922;6.704;2022-09-09T15:01:30;19.40;99.90
2861;DHT22;1438;50.922;6.704;2022-09-09T15:03:58;19.60;99.90
2861;DHT22;1438;50.922;6.704;2022-09-09T15:06:25;19.80;99.90
2861;DHT22;1438;50.922;6.704;2022-09-09T15:08:53;19.90;99.90
2861;DHT22;1438;50.922;6.704;2022-09-09T15:11:19;19.90;99.90
2861;DHT22;1438;50.922;6.704;2022-09-09T15:13:46;19.90;99.90
2861;DHT22;1438;50.922;6.704;2022-09-09T15:16:19;19.60;99.90
2861;DHT22;1438;50.922;6.704;2022-09-09T15:18:46;19.40;99.90
2861;DHT22;1438;50.922;6.704;2022-09-09T15:21:12;19.30;99.90
2861;DHT22;1438;50.922;6.704;2022-09-09T15:23:38;19.30;99.90
2861;DHT22;1438;50.922;6.704;2022-09-09T15:26:04;19.40;99.90
2861;DHT22;1438;50.922;6.704;2022-09-09T15:28:32;19.40;99.90
2861;DHT22;1438;50.922;6.704;2022-09-09T15:31:09;19.40;99.90
2861;DHT22;1438;50.922;6.704;2022-09-09T15:33:36;19.50;99.90
2861;DHT22;1438;50.922;6.704;2022-09-09T15:36:20;19.60;99.90
2861;DHT22;1438;50.922;6.704;2022-09-09T15:38:46;19.60;99.90
2861;DHT22;1438;50.922;6.704;2022-09-09T15:41:13;19.60;99.90
2861;DHT22;1438;50.922;6.704;2022-09-09T15:43:42;19.60;99.90
2861;DHT22;1438;50.922;6.704;2022-09-09T15:48:44;19.80;99.90
2861;DHT22;1438;50.922;6.704;2022-09-09T15:51:10;19.70;99.90
2861;DHT22;1438;50.922;6.704;2022-09-09T15:53:37;19.80;99.90
2861;DHT22;1438;50.922;6.704;2022-09-09T15:56:07;19.80;99.90
2861;DHT22;1438;50.922;6.704;2022-09-09T15:58:33;19.60;99.90
2861;DHT22;1438;50.922;6.704;2022-09-09T16:01:06;19.50;99.90
2861;DHT22;1438;50.922;6.704;2022-09-09T16:03:40;19.30;99.90
2861;DHT22;1438;50.922;6.704;2022-09-09T16:06:20;19.20;99.90
2861;DHT22;1438;50.922;6.704;2022-09-09T16:08:48;19.10;99.90
2861;DHT22;1438;50.922;6.704;2022-09-09T16:11:20;19.00;99.90
2861;DHT22;1438;50.922;6.704;2022-09-09T16:13:48;18.90;99.90
2861;DHT22;1438;50.922;6.704;2022-09-09T16:16:15;19.00;99.90
2861;DHT22;1438;50.922;6.704;2022-09-09T16:18:47;19.00;99.90
2861;DHT22;1438;50.922;6.704;2022-09-09T16:21:16;19.00;99.90
2861;DHT22;1438;50.922;6.704;2022-09-09T16:23:42;18.90;99.90
2861;DHT22;1438;50.922;6.704;2022-09-09T16:26:11;19.20;99.90
2861;DHT22;1438;50.922;6.704;2022-09-09T16:28:37;19.10;99.90
2861;DHT22;1438;50.922;6.704;2022-09-09T16:31:07;19.20;99.90
2861;DHT22;1438;50.922;6.704;2022-09-09T16:33:33;19.20;99.90
2861;DHT22;1438;50.922;6.704;2022-09-09T16:36:04;19.40;99.90
2861;DHT22;1438;50.922;6.704;2022-09-09T16:38:29;19.50;99.90
2861;DHT22;1438;50.922;6.704;2022-09-09T16:40:59;19.50;99.90
2861;DHT22;1438;50.922;6.704;2022-09-09T16:43:25;19.50;99.90
2861;DHT22;1438;50.922;6.704;2022-09-09T16:45:51;19.40;99.90
2861;DHT22;1438;50.922;6.704;2022-09-09T16:48:16;19.40;99.90
2861;DHT22;1438;50.922;6.704;2022-09-09T16:50:42;19.50;99.90
2861;DHT22;1438;50.922;6.704;2022-09-09T16:53:07;19.80;99.90
2861;DHT22;1438;50.922;6.704;2022-09-09T16:55:38;19.80;99.90
2861;DHT22;1438;50.922;6.704;2022-09-09T16:58:04;19.80;99.90
2861;DHT22;1438;50.922;6.704;2022-09-09T17:00:30;19.80;99.90
2861;DHT22;1438;50.922;6.704;2022-09-09T17:02:55;19.80;99.90
2861;DHT22;1438;50.922;6.704;2022-09-09T17:05:21;19.70;99.90
2861;DHT22;1438;50.922;6.704;2022-09-09T17:07:48;19.60;99.90
2861;DHT22;1438;50.922;6.704;2022-09-09T17:10:14;19.50;99.90
2861;DHT22;1438;50.922;6.704;2022-09-09T17:12:40;19.50;99.90
2861;DHT22;1438;50.922;6.704;2022-09-09T17:15:07;19.40;99.90
2861;DHT22;1438;50.922;6.704;2022-09-09T17:17:32;19.40;99.90
2861;DHT22;1438;50.922;6.704;2022-09-09T17:19:58;19.30;99.90
2861;DHT22;1438;50.922;6.704;2022-09-09T17:22:23;19.20;99.90
2861;DHT22;1438;50.922;6.704;2022-09-09T17:24:51;19.00;99.90
2861;DHT22;1438;50.922;6.704;2022-09-09T17:27:17;19.10;99.90
2861;DHT22;1438;50.922;6.704;2022-09-09T17:29:42;19.10;99.90
2861;DHT22;1438;50.922;6.704;2022-09-09T17:32:08;19.10;99.90
2861;DHT22;1438;50.922;6.704;2022-09-09T17:34:35;18.90;99.90
2861;DHT22;1438;50.922;6.704;2022-09-09T17:37:01;18.80;99.90
2861;DHT22;1438;50.922;6.704;2022-09-09T17:39:26;18.70;99.90
2861;DHT22;1438;50.922;6.704;2022-09-09T17:41:52;18.70;99.90
2861;DHT22;1438;50.922;6.704;2022-09-09T17:44:19;18.50;99.90
2861;DHT22;1438;50.922;6.704;2022-09-09T17:46:45;18.50;99.90
2861;DHT22;1438;50.922;6.704;2022-09-09T17:49:13;18.50;99.90
2861;DHT22;1438;50.922;6.704;2022-09-09T17:51:40;18.50;99.90
2861;DHT22;1438;50.922;6.704;2022-09-09T17:54:20;18.60;99.90
2861;DHT22;1438;50.922;6.704;2022-09-09T17:56:47;18.40;99.90
2861;DHT22;1438;50.922;6.704;2022-09-09T17:59:14;18.30;99.90
2861;DHT22;1438;50.922;6.704;2022-09-09T18:01:43;18.20;99.90
2861;DHT22;1438;50.922;6.704;2022-09-09T18:04:09;18.10;99.90
2861;DHT22;1438;50.922;6.704;2022-09-09T18:06:38;18.10;99.90
2861;DHT22;1438;50.922;6.704;2022-09-09T18:09:06;18.00;99.90
2861;DHT22;1438;50.922;6.704;2022-09-09T18:11:35;17.80;99.90
2861;DHT22;1438;50.922;6.704;2022-09-09T18:14:04;17.70;99.90
2861;DHT22;1438;50.922;6.704;2022-09-09T18:16:32;17.60;99.90
2861;DHT22;1438;50.922;6.704;2022-09-09T18:19:02;17.50;99.90
2861;DHT22;1438;50.922;6.704;2022-09-09T18:21:29;17.50;99.90
2861;DHT22;1438;50.922;6.704;2022-09-09T18:23:59;17.40;99.90
2861;DHT22;1438;50.922;6.704;2022-09-09T18:26:26;17.40;99.90
2861;DHT22;1438;50.922;6.704;2022-09-09T18:28:59;17.30;99.90
2861;DHT22;1438;50.922;6.704;2022-09-09T18:31:27;17.20;99.90
2861;DHT22;1438;50.922;6.704;2022-09-09T18:33:54;17.20;99.90
2861;DHT22;1438;50.922;6.704;2022-09-09T18:36:23;17.00;99.90
2861;DHT22;1438;50.922;6.704;2022-09-09T18:38:49;16.90;99.90
2861;DHT22;1438;50.922;6.704;2022-09-09T18:41:19;16.90;99.90
2861;DHT22;1438;50.922;6.704;2022-09-09T18:43:53;16.90;99.90
2861;DHT22;1438;50.922;6.704;2022-09-09T18:46:20;16.90;99.90
2861;DHT22;1438;50.922;6.704;2022-09-09T18:48:47;16.90;99.90
2861;DHT22;1438;50.922;6.704;2022-09-09T18:51:16;16.80;99.90
2861;DHT22;1438;50.922;6.704;2022-09-09T18:53:42;16.70;99.90
2861;DHT22;1438;50.922;6.704;2022-09-09T18:56:10;16.70;99.90
2861;DHT22;1438;50.922;6.704;2022-09-09T18:58:36;16.60;99.90
2861;DHT22;1438;50.922;6.704;2022-09-09T19:01:04;16.60;99.90
2861;DHT22;1438;50.922;6.704;2022-09-09T19:03:33;16.60;99.90
2861;DHT22;1438;50.922;6.704;2022-09-09T19:06:08;16.50;99.90
2861;DHT22;1438;50.922;6.704;2022-09-09T19:08:39;16.60;99.90
2861;DHT22;1438;50.922;6.704;2022-09-09T19:11:07;16.50;99.90
2861;DHT22;1438;50.922;6.704;2022-09-09T19:13:33;16.60;99.90
2861;DHT22;1438;50.922;6.704;2022-09-09T19:16:12;16.60;99.90
2861;DHT22;1438;50.922;6.704;2022-09-09T19:18:39;16.60;99.90
2861;DHT22;1438;50.922;6.704;2022-09-09T19:21:31;16.60;99.90
2861;DHT22;1438;50.922;6.704;2022-09-09T19:24:00;16.60;99.90
2861;DHT22;1438;50.922;6.704;2022-09-09T19:26:28;16.50;99.90
2861;DHT22;1438;50.922;6.704;2022-09-09T19:28:56;16.50;99.90
2861;DHT22;1438;50.922;6.704;2022-09-09T19:31:22;16.40;99.90
2861;DHT22;1438;50.922;6.704;2022-09-09T19:33:48;16.30;99.90
2861;DHT22;1438;50.922;6.704;2022-09-09T19:36:17;16.20;99.90
2861;DHT22;1438;50.922;6.704;2022-09-09T19:38:44;16.20;99.90
2861;DHT22;1438;50.922;6.704;2022-09-09T19:41:16;16.20;99.90
2861;DHT22;1438;50.922;6.704;2022-09-09T19:43:43;16.10;99.90
2861;DHT22;1438;50.922;6.704;2022-09-09T19:46:11;16.10;99.90
2861;DHT22;1438;50.922;6.704;2022-09-09T19:48:38;16.00;99.90
2861;DHT22;1438;50.922;6.704;2022-09-09T19:51:13;16.00;99.90
2861;DHT22;1438;50.922;6.704;2022-09-09T19:53:44;16.00;99.90
2861;DHT22;1438;50.922;6.704;2022-09-09T19:56:11;15.90;99.90
2861;DHT22;1438;50.922;6.704;2022-09-09T19:58:38;15.90;99.90
2861;DHT22;1438;50.922;6.704;2022-09-09T20:01:12;15.80;99.90
2861;DHT22;1438;50.922;6.704;2022-09-09T20:03:40;15.70;99.90
2861;DHT22;1438;50.922;6.704;2022-09-09T20:06:07;15.60;99.90
2861;DHT22;1438;50.922;6.704;2022-09-09T20:08:34;15.50;99.90
2861;DHT22;1438;50.922;6.704;2022-09-09T20:11:01;15.50;99.90
2861;DHT22;1438;50.922;6.704;2022-09-09T20:13:28;15.50;99.90
2861;DHT22;1438;50.922;6.704;2022-09-09T20:16:02;15.50;99.90
2861;DHT22;1438;50.922;6.704;2022-09-09T20:18:40;15.50;99.90
2861;DHT22;1438;50.922;6.704;2022-09-09T20:21:11;15.50;99.90
2861;DHT22;1438;50.922;6.704;2022-09-09T20:23:38;15.50;99.90
2861;DHT22;1438;50.922;6.704;2022-09-09T20:26:07;15.60;99.90
2861;DHT22;1438;50.922;6.704;2022-09-09T20:28:35;15.60;99.90
2861;DHT22;1438;50.922;6.704;2022-09-09T20:34:01;15.60;99.90
2861;DHT22;1438;50.922;6.704;2022-09-09T20:36:29;15.60;99.90
2861;DHT22;1438;50.922;6.704;2022-09-09T20:38:57;15.70;99.90
2861;DHT22;1438;50.922;6.704;2022-09-09T20:41:26;15.60;99.90
2861;DHT22;1438;50.922;6.704;2022-09-09T20:43:55;15.60;99.90
2861;DHT22;1438;50.922;6.704;2022-09-09T20:46:26;15.70;99.90
2861;DHT22;1438;50.922;6.704;2022-09-09T20:48:53;15.70;99.90
2861;DHT22;1438;50.922;6.704;2022-09-09T20:51:21;15.70;99.90
2861;DHT22;1438;50.922;6.704;2022-09-09T20:53:56;15.60;99.90
2861;DHT22;1438;50.922;6.704;2022-09-09T20:56:23;15.70;99.90
2861;DHT22;1438;50.922;6.704;2022-09-09T20:58:48;15.70;99.90
2861;DHT22;1438;50.922;6.704;2022-09-09T21:01:17;15.70;99.90
2861;DHT22;1438;50.922;6.704;2022-09-09T21:03:43;15.70;99.90
2861;DHT22;1438;50.922;6.704;2022-09-09T21:06:10;15.70;99.90
2861;DHT22;1438;50.922;6.704;2022-09-09T21:08:35;15.70;99.90
2861;DHT22;1438;50.922;6.704;2022-09-09T21:11:02;15.70;99.90
2861;DHT22;1438;50.922;6.704;2022-09-09T21:13:29;15.70;99.90
2861;DHT22;1438;50.922;6.704;2022-09-09T21:15:55;15.60;99.90
2861;DHT22;1438;50.922;6.704;2022-09-09T21:18:21;15.60;99.90
2861;DHT22;1438;50.922;6.704;2022-09-09T21:20:48;15.60;99.90
2861;DHT22;1438;50.922;6.704;2022-09-09T21:23:15;15.60;99.90
2861;DHT22;1438;50.922;6.704;2022-09-09T21:25:42;15.60;99.90
2861;DHT22;1438;50.922;6.704;2022-09-09T21:28:08;15.60;99.90
2861;DHT22;1438;50.922;6.704;2022-09-09T21:30:35;15.60;99.90
2861;DHT22;1438;50.922;6.704;2022-09-09T21:33:01;15.60;99.90
2861;DHT22;1438;50.922;6.704;2022-09-09T21:35:29;15.60;99.90
2861;DHT22;1438;50.922;6.704;2022-09-09T21:37:55;15.60;99.90
2861;DHT22;1438;50.922;6.704;2022-09-09T21:40:21;15.60;99.90
2861;DHT22;1438;50.922;6.704;2022-09-09T21:42:47;15.50;99.90
2861;DHT22;1438;50.922;6.704;2022-09-09T21:45:13;15.50;99.90
2861;DHT22;1438;50.922;6.704;2022-09-09T21:47:39;15.50;99.90
2861;DHT22;1438;50.922;6.704;2022-09-09T21:50:05;15.50;99.90
2861;DHT22;1438;50.922;6.704;2022-09-09T21:52:31;15.60;99.90
2861;DHT22;1438;50.922;6.704;2022-09-09T21:54:56;15.60;99.90
2861;DHT22;1438;50.922;6.704;2022-09-09T21:57:22;15.60;99.90
2861;DHT22;1438;50.922;6.704;2022-09-09T21:59:48;15.50;99.90
2861;DHT22;1438;50.922;6.704;2022-09-09T22:02:13;15.60;99.90
2861;DHT22;1438;50.922;6.704;2022-09-09T22:04:40;15.50;99.90
2861;DHT22;1438;50.922;6.704;2022-09-09T22:07:07;15.50;99.90
2861;DHT22;1438;50.922;6.704;2022-09-09T22:09:33;15.40;99.90
2861;DHT22;1438;50.922;6.704;2022-09-09T22:11:59;15.50;99.90
2861;DHT22;1438;50.922;6.704;2022-09-09T22:14:24;15.50;99.90
2861;DHT22;1438;50.922;6.704;2022-09-09T22:16:50;15.40;99.90
2861;DHT22;1438;50.922;6.704;2022-09-09T22:19:16;15.40;99.90
2861;DHT22;1438;50.922;6.704;2022-09-09T22:21:41;15.30;99.90
2861;DHT22;1438;50.922;6.704;2022-09-09T22:24:07;15.30;99.90
2861;DHT22;1438;50.922;6.704;2022-09-09T22:26:35;15.20;99.90
2861;DHT22;1438;50.922;6.704;2022-09-09T22:29:01;15.20;99.90
2861;DHT22;1438;50.922;6.704;2022-09-09T22:31:28;15.20;99.90
2861;DHT22;1438;50.922;6.704;2022-09-09T22:33:53;15.10;99.90
2861;DHT22;1438;50.922;6.704;2022-09-09T22:36:20;15.00;99.90
2861;DHT22;1438;50.922;6.704;2022-09-09T22:38:49;15.00;99.90
2861;DHT22;1438;50.922;6.704;2022-09-09T22:41:15;14.90;99.90
2861;DHT22;1438;50.922;6.704;2022-09-09T22:43:42;14.90;99.90
2861;DHT22;1438;50.922;6.704;2022-09-09T22:46:08;15.00;99.90
2861;DHT22;1438;50.922;6.704;2022-09-09T22:48:34;14.80;99.90
2861;DHT22;1438;50.922;6.704;2022-09-09T22:51:05;14.70;99.90
2861;DHT22;1438;50.922;6.704;2022-09-09T22:53:31;14.60;99.90
2861;DHT22;1438;50.922;6.704;2022-09-09T22:55:59;14.70;99.90
2861;DHT22;1438;50.922;6.704;2022-09-09T22:58:26;14.60;99.90
2861;DHT22;1438;50.922;6.704;2022-09-09T23:00:54;14.60;99.90
2861;DHT22;1438;50.922;6.704;2022-09-09T23:03:24;14.60;99.90
2861;DHT22;1438;50.922;6.704;2022-09-09T23:06:00;14.70;99.90
2861;DHT22;1438;50.922;6.704;2022-09-09T23:08:31;14.60;99.90
2861;DHT22;1438;50.922;6.704;2022-09-09T23:10:59;14.60;99.90
2861;DHT22;1438;50.922;6.704;2022-09-09T23:13:25;14.60;99.90
2861;DHT22;1438;50.922;6.704;2022-09-09T23:15:52;14.70;99.90
2861;DHT22;1438;50.922;6.704;2022-09-09T23:18:19;14.70;99.90
2861;DHT22;1438;50.922;6.704;2022-09-09T23:20:55;14.80;99.90
2861;DHT22;1438;50.922;6.704;2022-09-09T23:23:26;14.80;99.90
2861;DHT22;1438;50.922;6.704;2022-09-09T23:25:52;14.80;99.90
2861;DHT22;1438;50.922;6.704;2022-09-09T23:28:17;14.80;99.90
2861;DHT22;1438;50.922;6.704;2022-09-09T23:30:43;14.90;99.90
2861;DHT22;1438;50.922;6.704;2022-09-09T23:33:08;14.90;99.90
2861;DHT22;1438;50.922;6.704;2022-09-09T23:35:34;15.00;99.90
2861;DHT22;1438;50.922;6.704;2022-09-09T23:37:59;14.90;99.90
2861;DHT22;1438;50.922;6.704;2022-09-09T23:40:25;14.90;99.90
2861;DHT22;1438;50.922;6.704;2022-09-09T23:42:51;14.90;99.90
2861;DHT22;1438;50.922;6.704;2022-09-09T23:45:18;14.90;99.90
2861;DHT22;1438;50.922;6.704;2022-09-09T23:47:44;14.80;99.90
2861;DHT22;1438;50.922;6.704;2022-09-09T23:50:10;14.90;99.90
2861;DHT22;1438;50.922;6.704;2022-09-09T23:52:35;14.90;99.90
2861;DHT22;1438;50.922;6.704;2022-09-09T23:55:02;14.80;99.90
2861;DHT22;1438;50.922;6.704;2022-09-09T23:57:28;14.80;99.90
2861;DHT22;1438;50.922;6.704;2022-09-09T23:59:54;14.90;99.90
